Time;durP1;ratioP1;P1;durP2;ratioP2;P2;SDS_P1;SDS_P2;PMS_P1;PMS_P2;Temp;Humidity;BMP_temperature;BMP_pressure;BME280_temperature;BME280_humidity;BME280_pressure;Samples;Min_cycle;Max_cycle;Signal;HPM_P1;HPM_P2
2022/03/07 00:00:43;;;;;;;17.53;12.80;;;0.80;92.70;;;;;;5096266;28;20478;-45
2022/03/07 00:03:10;;;;;;;17.20;11.57;;;0.40;93.00;;;;;;5095978;28;20964;-44
2022/03/07 00:05:37;;;;;;;15.53;10.90;;;0.30;93.50;;;;;;5096309;28;20996;-45
2022/03/07 00:08:04;;;;;;;17.43;12.87;;;0.30;93.20;;;;;;5095333;28;20498;-45
2022/03/07 00:10:31;;;;;;;16.07;11.97;;;0.30;93.10;;;;;;5095290;28;20482;-44
2022/03/07 00:12:58;;;;;;;16.00;10.50;;;0.20;93.30;;;;;;5095900;28;20478;-45
2022/03/07 00:15:25;;;;;;;15.90;10.87;;;0.20;93.30;;;;;;5095558;28;20475;-45
2022/03/07 00:17:53;;;;;;;15.23;11.13;;;0.20;93.30;;;;;;5095041;28;20490;-45
2022/03/07 00:20:20;;;;;;;14.57;10.27;;;0.20;93.20;;;;;;5094635;28;20947;-44
2022/03/07 00:22:47;;;;;;;17.30;11.33;;;0.10;93.40;;;;;;5094649;28;20471;-44
2022/03/07 00:25:16;;;;;;;13.00;11.00;;;0.20;93.30;;;;;;5094573;28;20795;-44
2022/03/07 00:27:43;;;;;;;18.47;11.50;;;0.20;93.30;;;;;;5094337;28;20477;-45
2022/03/07 00:30:11;;;;;;;17.23;10.40;;;0.20;93.30;;;;;;5094042;28;20468;-45
2022/03/07 00:32:38;;;;;;;20.47;11.70;;;0.30;93.30;;;;;;5094241;28;20482;-45
2022/03/07 00:35:07;;;;;;;19.43;11.37;;;0.20;93.10;;;;;;5094843;28;20483;-45
2022/03/07 00:37:34;;;;;;;12.80;11.50;;;0.20;93.20;;;;;;5092944;28;20491;-44
2022/03/07 00:40:01;;;;;;;16.17;11.33;;;0.00;93.20;;;;;;5093773;28;20507;-45
2022/03/07 00:42:28;;;;;;;14.30;11.27;;;0.10;93.40;;;;;;5094096;28;20443;-45
2022/03/07 00:44:55;;;;;;;16.07;11.00;;;0.20;93.30;;;;;;5093413;28;20486;-50
2022/03/07 00:47:22;;;;;;;15.07;10.40;;;0.10;92.90;;;;;;5094277;28;20524;-47
2022/03/07 00:49:49;;;;;;;16.13;10.70;;;0.20;93.30;;;;;;5093448;28;20479;-45
2022/03/07 00:52:17;;;;;;;16.00;11.20;;;0.30;93.00;;;;;;5092997;28;20471;-44
2022/03/07 00:54:44;;;;;;;14.17;10.23;;;0.20;92.70;;;;;;5093346;28;20463;-44
2022/03/07 00:57:11;;;;;;;15.07;11.00;;;0.10;92.80;;;;;;5092689;28;20496;-45
2022/03/07 00:59:38;;;;;;;15.30;12.20;;;0.10;93.30;;;;;;5092686;28;20537;-45
2022/03/07 01:02:05;;;;;;;15.07;9.70;;;0.00;93.20;;;;;;5092885;28;20447;-46
2022/03/07 01:04:32;;;;;;;16.07;10.60;;;-0.10;93.50;;;;;;5093337;28;20479;-45
2022/03/07 01:06:58;;;;;;;13.27;10.03;;;-0.10;93.50;;;;;;5092504;28;20463;-45
2022/03/07 01:09:27;;;;;;;15.70;11.53;;;-0.30;93.90;;;;;;5092454;28;20471;-45
2022/03/07 01:11:54;;;;;;;12.43;10.87;;;-0.20;93.90;;;;;;5092752;28;20523;-45
2022/03/07 01:14:21;;;;;;;16.80;12.27;;;0.00;93.90;;;;;;5091708;28;20471;-45
2022/03/07 01:16:48;;;;;;;15.90;11.30;;;0.20;93.50;;;;;;5091876;28;20446;-45
2022/03/07 01:19:15;;;;;;;16.93;11.77;;;0.30;93.30;;;;;;5091516;28;20893;-44
2022/03/07 01:21:42;;;;;;;15.27;11.33;;;0.50;93.30;;;;;;5091897;28;20689;-45
2022/03/07 01:24:09;;;;;;;14.03;9.80;;;0.60;93.40;;;;;;5091413;28;20490;-45
2022/03/07 01:26:37;;;;;;;13.40;9.47;;;0.80;93.50;;;;;;5092274;28;20526;-45
2022/03/07 01:29:05;;;;;;;11.80;9.93;;;0.80;93.40;;;;;;5093344;28;20455;-45
2022/03/07 01:31:32;;;;;;;17.17;11.00;;;0.80;93.40;;;;;;5093322;28;20894;-46
2022/03/07 01:33:59;;;;;;;14.77;10.63;;;0.80;93.30;;;;;;5093309;28;20475;-45
2022/03/07 01:36:26;;;;;;;16.50;10.93;;;0.90;93.60;;;;;;5093385;28;20961;-45
2022/03/07 01:38:53;;;;;;;12.00;10.17;;;1.00;93.10;;;;;;5093719;28;20514;-46
2022/03/07 01:41:20;;;;;;;15.70;10.60;;;0.90;93.10;;;;;;5094119;28;20955;-44
2022/03/07 01:43:48;;;;;;;15.20;9.87;;;0.90;93.30;;;;;;5093980;28;20475;-45
2022/03/07 01:46:15;;;;;;;13.67;10.63;;;0.90;93.70;;;;;;5093357;28;20483;-46
2022/03/07 01:48:42;;;;;;;16.50;11.07;;;1.00;93.70;;;;;;5095893;28;20491;-45
2022/03/07 01:51:10;;;;;;;16.90;11.43;;;1.10;93.50;;;;;;5096533;28;20490;-46
2022/03/07 01:53:39;;;;;;;11.90;10.50;;;0.90;93.00;;;;;;5097147;28;20447;-46
2022/03/07 01:56:07;;;;;;;14.50;10.27;;;0.80;93.20;;;;;;5097362;28;20478;-46
2022/03/07 01:58:34;;;;;;;12.50;10.50;;;0.80;93.70;;;;;;5096987;28;20511;-45
2022/03/07 02:01:03;;;;;;;15.63;11.50;;;0.60;93.10;;;;;;5097607;28;20443;-45
2022/03/07 02:03:30;;;;;;;16.00;10.50;;;0.50;92.70;;;;;;5097472;28;20488;-45
2022/03/07 02:05:57;;;;;;;13.70;10.20;;;0.20;93.60;;;;;;5096972;28;20435;-46
2022/03/07 02:08:25;;;;;;;16.73;11.90;;;0.00;94.40;;;;;;5097367;28;20980;-45
2022/03/07 02:10:51;;;;;;;18.07;12.03;;;-0.10;94.80;;;;;;5097135;28;20443;-45
2022/03/07 02:13:20;;;;;;;15.97;11.23;;;-0.10;95.00;;;;;;5097444;28;20478;-45
2022/03/07 02:15:53;;;;;;;15.60;9.97;;;0.00;95.40;;;;;;5096904;28;20467;-44
2022/03/07 02:18:22;;;;;;;15.27;11.40;;;0.20;96.00;;;;;;5096449;28;20463;-44
2022/03/07 02:20:55;;;;;;;16.23;11.93;;;0.40;96.00;;;;;;5097268;28;20804;-45
2022/03/07 02:23:24;;;;;;;16.03;11.20;;;0.40;95.70;;;;;;5096965;28;20475;-46
2022/03/07 02:25:51;;;;;;;14.47;10.80;;;0.50;95.90;;;;;;5096982;28;20478;-45
2022/03/07 02:28:18;;;;;;;15.17;11.50;;;0.50;95.70;;;;;;5096742;28;20502;-45
2022/03/07 02:30:45;;;;;;;12.37;9.90;;;0.60;95.30;;;;;;5096463;28;20474;-45
2022/03/07 02:33:13;;;;;;;14.13;10.13;;;0.60;94.90;;;;;;5097150;28;20979;-44
2022/03/07 02:35:40;;;;;;;16.17;11.27;;;0.20;94.60;;;;;;5098564;28;21031;-45
2022/03/07 02:38:15;;;;;;;14.30;12.60;;;-0.10;94.70;;;;;;5098419;28;20494;-45
2022/03/07 02:40:46;;;;;;;13.70;10.90;;;-0.10;94.50;;;;;;5097767;28;20820;-45
2022/03/07 02:43:13;;;;;;;15.87;10.73;;;-0.20;94.10;;;;;;5097970;28;20450;-45
2022/03/07 02:45:40;;;;;;;11.97;10.50;;;-0.20;94.30;;;;;;5097631;28;20448;-45
2022/03/07 02:48:07;;;;;;;13.23;10.50;;;-0.20;94.60;;;;;;5096753;28;20964;-45
2022/03/07 02:50:34;;;;;;;13.23;10.90;;;-0.20;94.30;;;;;;5095865;28;20956;-44
2022/03/07 02:53:01;;;;;;;16.13;11.30;;;0.00;95.10;;;;;;5097035;28;20482;-44
2022/03/07 02:55:28;;;;;;;17.40;11.07;;;-0.20;94.30;;;;;;5097592;28;20493;-44
2022/03/07 02:57:56;;;;;;;12.43;10.17;;;-0.40;93.80;;;;;;5097794;28;20498;-43
2022/03/07 03:00:23;;;;;;;17.00;11.17;;;-0.50;93.80;;;;;;5097331;28;20518;-44
2022/03/07 03:02:50;;;;;;;16.60;11.50;;;-0.70;93.90;;;;;;5097805;28;20880;-44
2022/03/07 03:05:17;;;;;;;16.10;11.57;;;-0.70;94.20;;;;;;5097576;28;21016;-43
2022/03/07 03:07:47;;;;;;;12.80;10.30;;;-0.70;94.30;;;;;;5097648;28;20498;-45
2022/03/07 03:10:14;;;;;;;11.60;10.03;;;-0.80;94.30;;;;;;5097068;28;20446;-44
2022/03/07 03:12:41;;;;;;;12.93;10.23;;;-0.80;95.10;;;;;;5097074;28;20477;-44
2022/03/07 03:15:11;;;;;;;19.83;10.87;;;-0.70;94.70;;;;;;5096687;28;20469;-54
2022/03/07 03:17:40;;;;;;;16.37;11.00;;;-0.70;94.80;;;;;;5096375;28;20497;-45
2022/03/07 03:20:10;;;;;;;14.07;10.07;;;-0.60;94.50;;;;;;5096071;28;20479;-45
2022/03/07 03:22:37;;;;;;;15.77;10.37;;;-0.70;94.60;;;;;;5097373;28;20448;-45
2022/03/07 03:25:05;;;;;;;13.90;10.90;;;-0.80;94.50;;;;;;5096715;28;20439;-46
2022/03/07 03:27:32;;;;;;;14.93;10.83;;;-0.90;94.00;;;;;;5096621;28;20547;-45
2022/03/07 03:29:59;;;;;;;11.80;10.03;;;-0.60;94.30;;;;;;5095342;28;20463;-45
2022/03/07 03:32:27;;;;;;;16.03;10.73;;;-0.50;93.50;;;;;;5095906;28;20475;-45
2022/03/07 03:34:55;;;;;;;14.27;10.77;;;-0.20;93.60;;;;;;5095672;28;20436;-46
2022/03/07 03:37:22;;;;;;;15.70;11.50;;;0.00;93.90;;;;;;5095428;28;20465;-45
2022/03/07 03:39:49;;;;;;;14.07;10.87;;;0.20;93.80;;;;;;5095301;28;20517;-45
2022/03/07 03:42:16;;;;;;;12.33;10.20;;;0.30;94.00;;;;;;5095157;28;20952;-45
2022/03/07 03:44:43;;;;;;;16.27;11.60;;;0.50;93.70;;;;;;5095515;28;20474;-46
2022/03/07 03:47:10;;;;;;;14.20;9.77;;;0.60;93.10;;;;;;5095423;28;20464;-45
2022/03/07 03:49:38;;;;;;;13.93;11.50;;;0.80;93.20;;;;;;5094371;28;20490;-45
2022/03/07 03:52:06;;;;;;;15.30;10.77;;;0.80;92.70;;;;;;5095302;28;20448;-45
2022/03/07 03:54:33;;;;;;;14.93;9.43;;;0.70;92.90;;;;;;5095006;28;20979;-45
2022/03/07 03:56:59;;;;;;;14.43;11.30;;;0.60;93.10;;;;;;5095350;28;20477;-47
2022/03/07 03:59:26;;;;;;;14.43;9.53;;;0.50;93.60;;;;;;5095220;28;20503;-45
2022/03/07 04:01:53;;;;;;;13.93;11.60;;;0.70;93.70;;;;;;5095044;28;20998;-45
2022/03/07 04:04:20;;;;;;;14.90;10.87;;;0.80;93.90;;;;;;5095163;28;20472;-46
2022/03/07 04:06:48;;;;;;;17.73;11.83;;;0.90;93.80;;;;;;5094900;28;20443;-54
2022/03/07 04:09:16;;;;;;;14.03;10.67;;;1.00;94.40;;;;;;5094341;28;20438;-45
2022/03/07 04:11:43;;;;;;;12.60;10.27;;;1.00;94.10;;;;;;5093366;28;20471;-46
2022/03/07 04:14:10;;;;;;;13.33;11.20;;;0.90;92.90;;;;;;5094224;28;20482;-46
2022/03/07 04:16:38;;;;;;;17.10;11.17;;;0.70;92.90;;;;;;5094612;28;20471;-45
2022/03/07 04:19:06;;;;;;;14.90;11.33;;;0.60;93.50;;;;;;5093973;28;20464;-46
2022/03/07 04:21:33;;;;;;;14.93;11.80;;;0.40;93.30;;;;;;5094715;28;20448;-47
2022/03/07 04:24:01;;;;;;;14.93;10.43;;;0.30;94.10;;;;;;5094569;28;20439;-44
2022/03/07 04:26:29;;;;;;;15.40;10.77;;;0.30;94.10;;;;;;5094887;28;20436;-44
2022/03/07 04:28:56;;;;;;;13.40;10.97;;;0.30;93.90;;;;;;5094071;28;20499;-45
2022/03/07 04:31:23;;;;;;;19.77;11.87;;;0.20;93.60;;;;;;5094310;28;20479;-44
2022/03/07 04:33:50;;;;;;;14.20;10.50;;;0.10;93.90;;;;;;5094517;28;20960;-45
2022/03/07 04:36:18;;;;;;;16.50;11.13;;;0.20;94.10;;;;;;5094041;28;20467;-45
2022/03/07 04:38:46;;;;;;;15.90;10.13;;;0.20;94.40;;;;;;5094213;28;20463;-45
2022/03/07 04:41:14;;;;;;;16.07;10.43;;;0.30;94.00;;;;;;5093818;28;20533;-46
2022/03/07 04:43:41;;;;;;;15.53;11.27;;;0.50;94.00;;;;;;5093833;28;20483;-45
2022/03/07 04:46:08;;;;;;;15.73;11.10;;;0.50;93.80;;;;;;5094280;28;20471;-45
2022/03/07 04:48:36;;;;;;;14.83;10.33;;;0.40;93.40;;;;;;5093889;28;20872;-45
2022/03/07 04:51:03;;;;;;;14.03;10.00;;;0.50;94.30;;;;;;5093682;28;20451;-47
2022/03/07 04:53:30;;;;;;;13.60;11.00;;;0.50;95.20;;;;;;5093654;28;20463;-46
2022/03/07 04:55:58;;;;;;;16.93;10.93;;;0.60;94.20;;;;;;5094031;28;20476;-46
2022/03/07 04:58:26;;;;;;;17.67;12.03;;;0.80;93.60;;;;;;5093994;28;21011;-45
2022/03/07 05:00:54;;;;;;;22.13;9.50;;;0.90;93.80;;;;;;5093302;28;20518;-45
2022/03/07 05:03:21;;;;;;;11.40;9.90;;;0.90;94.50;;;;;;5093280;28;20443;-45
2022/03/07 05:05:48;;;;;;;14.83;10.93;;;1.00;94.40;;;;;;5093898;28;20447;-47
2022/03/07 05:08:15;;;;;;;14.83;10.93;;;1.00;94.60;;;;;;5093667;28;20927;-45
2022/03/07 05:10:42;;;;;;;11.90;9.53;;;1.10;94.10;;;;;;5092996;28;20459;-46
2022/03/07 05:13:09;;;;;;;16.27;11.67;;;1.10;94.20;;;;;;5093456;28;20891;-45
2022/03/07 05:15:38;;;;;;;14.77;10.10;;;1.20;94.20;;;;;;5093802;28;20439;-46
2022/03/07 05:18:06;;;;;;;16.77;11.37;;;1.10;94.10;;;;;;5093481;28;20459;-45
2022/03/07 05:20:33;;;;;;;17.50;11.67;;;1.00;94.70;;;;;;5093553;28;20514;-47
2022/03/07 05:23:00;;;;;;;16.60;12.50;;;0.90;95.20;;;;;;5093580;28;20529;-44
2022/03/07 05:25:28;;;;;;;13.03;10.33;;;0.80;95.50;;;;;;5094266;28;20471;-45
2022/03/07 05:27:55;;;;;;;16.37;12.40;;;0.80;95.40;;;;;;5094163;28;21017;-44
2022/03/07 05:30:23;;;;;;;18.40;12.53;;;0.70;95.10;;;;;;5093709;28;20516;-45
2022/03/07 05:32:54;;;;;;;15.43;11.77;;;0.60;95.20;;;;;;5094356;28;20467;-45
2022/03/07 05:35:23;;;;;;;13.80;10.93;;;0.50;95.40;;;;;;5094159;28;20440;-45
2022/03/07 05:37:50;;;;;;;15.10;10.90;;;0.20;95.70;;;;;;5093533;28;20524;-46
2022/03/07 05:40:18;;;;;;;15.73;13.17;;;0.30;96.00;;;;;;5092959;28;20510;-45
2022/03/07 05:42:46;;;;;;;14.40;9.80;;;0.40;95.30;;;;;;5094059;28;20975;-45
2022/03/07 05:45:14;;;;;;;16.30;12.00;;;0.50;95.50;;;;;;5093525;28;20887;-46
2022/03/07 05:47:41;;;;;;;15.20;11.10;;;0.60;96.00;;;;;;5093871;28;20558;-45
2022/03/07 05:50:11;;;;;;;20.13;13.60;;;0.60;96.20;;;;;;5092432;28;20479;-45
2022/03/07 05:52:38;;;;;;;16.40;12.70;;;0.60;95.70;;;;;;5092873;28;20470;-46
2022/03/07 05:55:06;;;;;;;17.07;12.40;;;0.40;94.80;;;;;;5093629;28;20478;-45
2022/03/07 05:57:33;;;;;;;16.10;10.50;;;0.30;94.70;;;;;;5093555;28;20501;-47
2022/03/07 06:00:00;;;;;;;15.37;11.00;;;0.10;94.80;;;;;;5094272;28;20528;-45
2022/03/07 06:02:27;;;;;;;17.10;11.70;;;-0.10;95.10;;;;;;5094510;28;20474;-47
2022/03/07 06:04:54;;;;;;;14.53;11.00;;;0.00;95.30;;;;;;5093804;28;20475;-45
2022/03/07 06:07:23;;;;;;;15.87;11.30;;;0.10;94.90;;;;;;5094046;28;20472;-45
2022/03/07 06:09:49;;;;;;;19.57;11.27;;;0.30;94.80;;;;;;5094231;28;20563;-44
2022/03/07 06:12:16;;;;;;;13.90;11.23;;;0.50;94.60;;;;;;5093216;28;20482;-44
2022/03/07 06:14:43;;;;;;;17.27;12.53;;;0.60;95.20;;;;;;5093292;28;20479;-44
2022/03/07 06:17:10;;;;;;;17.20;11.30;;;0.80;95.40;;;;;;5092944;28;20495;-47
2022/03/07 06:19:37;;;;;;;17.60;12.60;;;0.90;94.90;;;;;;5092918;28;20467;-45
2022/03/07 06:22:04;;;;;;;15.97;11.80;;;0.80;94.90;;;;;;5093253;28;20478;-45
2022/03/07 06:24:33;;;;;;;13.10;11.10;;;0.80;94.70;;;;;;5092975;28;21053;-44
2022/03/07 06:27:00;;;;;;;16.53;10.93;;;0.80;94.80;;;;;;5092870;28;20512;-45
2022/03/07 06:29:28;;;;;;;14.10;10.73;;;0.80;94.50;;;;;;5092976;28;20865;-45
2022/03/07 06:31:55;;;;;;;17.80;11.70;;;0.80;94.20;;;;;;5093127;28;20448;-46
2022/03/07 06:34:22;;;;;;;16.03;11.67;;;0.90;94.00;;;;;;5094178;28;20451;-45
2022/03/07 06:36:50;;;;;;;14.87;11.43;;;0.90;93.30;;;;;;5096872;28;20443;-45
2022/03/07 06:39:17;;;;;;;13.70;10.60;;;1.00;94.00;;;;;;5097131;28;20486;-45
2022/03/07 06:41:45;;;;;;;15.27;10.67;;;1.00;94.10;;;;;;5097072;28;20471;-45
2022/03/07 06:44:12;;;;;;;20.87;12.00;;;1.10;94.10;;;;;;5097533;28;20471;-45
2022/03/07 06:46:39;;;;;;;14.43;10.50;;;1.20;94.10;;;;;;5097735;28;20468;-44
2022/03/07 06:49:06;;;;;;;15.87;11.77;;;1.20;94.90;;;;;;5096705;28;20493;-46
2022/03/07 06:51:33;;;;;;;17.63;11.93;;;1.20;94.10;;;;;;5133549;22;20532;-44
2022/03/07 06:54:00;;;;;;;15.57;11.80;;;1.30;94.30;;;;;;5074146;28;20896;-44
2022/03/07 06:56:27;;;;;;;19.50;13.00;;;1.40;94.20;;;;;;5073912;28;20476;-44
2022/03/07 06:58:56;;;;;;;19.60;13.03;;;1.50;94.50;;;;;;5074075;28;20472;-44
2022/03/07 07:01:23;;;;;;;19.77;12.70;;;1.50;94.40;;;;;;5073790;28;21009;-44
2022/03/07 07:03:50;;;;;;;16.30;11.60;;;1.50;94.80;;;;;;5074057;28;20444;-45
2022/03/07 07:06:17;;;;;;;18.13;12.00;;;1.30;94.90;;;;;;5073704;28;20468;-44
2022/03/07 07:08:44;;;;;;;17.97;13.77;;;1.00;94.10;;;;;;5073669;28;20513;-45
2022/03/07 07:11:11;;;;;;;18.80;13.00;;;0.60;93.90;;;;;;5073668;28;20493;-44
2022/03/07 07:13:37;;;;;;;15.27;11.97;;;0.20;94.00;;;;;;5072433;28;20531;-45
2022/03/07 07:16:06;;;;;;;24.20;16.13;;;0.20;95.10;;;;;;5073278;28;20480;-45
2022/03/07 07:18:33;;;;;;;18.30;12.37;;;0.10;95.20;;;;;;5073300;28;20469;-44
2022/03/07 07:21:01;;;;;;;16.17;12.63;;;0.00;95.00;;;;;;5073012;28;20575;-44
2022/03/07 07:23:28;;;;;;;22.43;13.27;;;-0.10;94.40;;;;;;5073183;28;20992;-44
2022/03/07 07:25:55;;;;;;;17.43;11.80;;;-0.10;94.30;;;;;;5073514;28;20448;-44
2022/03/07 07:28:22;;;;;;;17.87;12.37;;;-0.10;93.70;;;;;;5073353;28;20472;-45
2022/03/07 07:30:50;;;;;;;16.90;12.30;;;-0.10;94.10;;;;;;5072669;28;20456;-44
2022/03/07 07:33:19;;;;;;;28.10;14.47;;;-0.10;94.40;;;;;;5072938;28;20445;-45
2022/03/07 07:35:46;;;;;;;20.80;16.50;;;-0.20;95.60;;;;;;5073069;28;20484;-45
2022/03/07 07:38:13;;;;;;;20.93;15.33;;;-0.30;96.10;;;;;;5073434;28;20468;-44
2022/03/07 07:40:40;;;;;;;19.50;12.43;;;-0.30;94.90;;;;;;5072322;28;21000;-44
2022/03/07 07:43:07;;;;;;;15.03;11.87;;;-0.30;94.70;;;;;;5073072;28;20483;-45
2022/03/07 07:45:35;;;;;;;18.57;11.03;;;-0.30;94.10;;;;;;5072545;28;20441;-44
2022/03/07 07:48:02;;;;;;;15.30;11.20;;;-0.10;93.60;;;;;;5072907;28;20476;-44
2022/03/07 07:50:30;;;;;;;23.93;13.67;;;0.10;93.50;;;;;;5072062;28;20473;-44
2022/03/07 07:52:57;;;;;;;57.57;28.80;;;0.30;93.10;;;;;;5072864;28;20443;-44
2022/03/07 07:55:25;;;;;;;21.40;13.57;;;0.40;93.30;;;;;;5072581;28;20527;-43
2022/03/07 07:57:52;;;;;;;15.90;11.90;;;0.40;93.00;;;;;;5072466;28;20851;-45
2022/03/07 08:00:20;;;;;;;16.77;12.50;;;0.50;92.90;;;;;;5072745;28;20563;-45
2022/03/07 08:02:48;;;;;;;15.93;11.30;;;0.40;93.10;;;;;;5072834;28;20486;-44
2022/03/07 08:05:15;;;;;;;15.37;11.90;;;0.30;93.70;;;;;;5072711;28;20472;-44
2022/03/07 08:07:44;;;;;;;17.27;12.40;;;0.50;93.30;;;;;;5070524;28;20447;-44
2022/03/07 08:10:12;;;;;;;17.10;12.00;;;0.60;93.10;;;;;;5062746;28;20993;-45
2022/03/07 08:12:39;;;;;;;14.57;10.40;;;0.60;92.90;;;;;;5072201;28;20479;-44
2022/03/07 08:15:11;;;;;;;14.93;11.47;;;0.30;93.30;;;;;;5071767;28;20500;-46
2022/03/07 08:17:39;;;;;;;15.57;11.63;;;0.20;93.60;;;;;;5072311;28;20451;-45
2022/03/07 08:20:07;;;;;;;14.90;12.10;;;0.40;93.50;;;;;;5072194;28;20456;-44
2022/03/07 08:22:34;;;;;;;17.03;13.30;;;0.50;93.40;;;;;;5072117;28;20500;-45
2022/03/07 08:25:03;;;;;;;19.93;11.80;;;0.50;93.20;;;;;;5071877;28;20531;-43
2022/03/07 08:27:30;;;;;;;20.10;12.60;;;0.60;93.10;;;;;;5072088;28;20829;-43
2022/03/07 08:29:57;;;;;;;17.93;11.33;;;0.90;93.30;;;;;;5071860;28;21058;-46
2022/03/07 08:32:23;;;;;;;16.00;11.40;;;1.20;93.40;;;;;;5072070;28;20992;-43
2022/03/07 08:34:50;;;;;;;14.83;12.03;;;1.40;93.10;;;;;;5071931;28;20458;-44
2022/03/07 08:37:17;;;;;;;16.20;11.30;;;1.40;93.40;;;;;;5071750;28;20500;-44
2022/03/07 08:39:44;;;;;;;19.60;12.70;;;1.20;93.40;;;;;;5071080;28;20476;-44
2022/03/07 08:42:12;;;;;;;15.83;12.13;;;1.20;93.00;;;;;;5071958;28;20582;-44
2022/03/07 08:44:39;;;;;;;15.60;12.10;;;1.20;92.90;;;;;;5071720;28;20476;-44
2022/03/07 08:47:06;;;;;;;18.07;13.13;;;1.10;93.00;;;;;;5071770;28;20527;-43
2022/03/07 08:49:33;;;;;;;15.40;11.00;;;1.10;94.50;;;;;;5070850;28;20455;-45
2022/03/07 08:52:00;;;;;;;16.60;11.30;;;1.00;95.30;;;;;;5071651;28;20536;-45
2022/03/07 08:54:27;;;;;;;16.10;11.77;;;1.00;95.00;;;;;;5071969;28;20474;-44
2022/03/07 08:56:54;;;;;;;17.60;12.17;;;1.10;94.80;;;;;;5071067;28;20934;-44
2022/03/07 08:59:24;;;;;;;14.60;10.77;;;1.10;94.30;;;;;;5070986;28;20523;-44
2022/03/07 09:01:51;;;;;;;14.93;9.80;;;1.20;94.60;;;;;;5071535;28;20508;-43
2022/03/07 09:04:18;;;;;;;15.43;12.17;;;1.20;93.90;;;;;;5071602;28;20885;-45
2022/03/07 09:06:45;;;;;;;14.77;10.43;;;1.20;93.50;;;;;;5071055;28;21142;-44
2022/03/07 09:09:12;;;;;;;15.93;10.80;;;1.20;93.30;;;;;;5071463;28;20522;-43
2022/03/07 09:11:39;;;;;;;19.30;11.47;;;1.20;93.20;;;;;;5071400;28;20488;-43
2022/03/07 09:14:06;;;;;;;19.80;11.70;;;1.40;94.10;;;;;;5071289;28;20877;-45
2022/03/07 09:16:34;;;;;;;15.00;11.73;;;1.40;93.80;;;;;;5071324;28;20484;-44
2022/03/07 09:19:01;;;;;;;18.00;12.87;;;1.50;92.10;;;;;;5071521;28;20873;-44
2022/03/07 09:21:28;;;;;;;15.10;11.63;;;1.60;91.60;;;;;;5071375;28;20566;-43
2022/03/07 09:23:55;;;;;;;14.97;11.60;;;1.70;91.70;;;;;;5071199;28;20480;-45
2022/03/07 09:26:22;;;;;;;17.57;12.23;;;1.60;92.00;;;;;;5071323;28;20528;-45
2022/03/07 09:28:49;;;;;;;13.30;10.83;;;1.60;91.00;;;;;;5071322;28;20523;-45
2022/03/07 09:31:16;;;;;;;18.20;11.70;;;1.60;90.40;;;;;;5071103;28;20540;-45
2022/03/07 09:33:44;;;;;;;17.83;12.77;;;1.80;90.70;;;;;;5071559;28;20468;-44
2022/03/07 09:36:11;;;;;;;13.37;11.67;;;1.70;90.30;;;;;;5071043;28;20441;-46
2022/03/07 09:38:38;;;;;;;15.30;11.70;;;1.70;90.90;;;;;;5071300;28;20483;-45
2022/03/07 09:41:05;;;;;;;14.27;10.93;;;1.70;91.00;;;;;;5070705;28;20472;-44
2022/03/07 09:43:33;;;;;;;18.43;11.40;;;1.70;90.10;;;;;;5071105;28;20473;-44
2022/03/07 09:46:00;;;;;;;18.23;11.40;;;1.80;89.90;;;;;;5071180;28;20945;-44
2022/03/07 09:48:27;;;;;;;12.70;10.30;;;1.90;89.90;;;;;;5070826;28;20476;-43
2022/03/07 09:50:56;;;;;;;14.07;9.90;;;2.00;87.50;;;;;;5070645;28;20465;-44
2022/03/07 09:53:23;;;;;;;14.53;10.37;;;2.10;85.50;;;;;;5070797;28;20469;-41
2022/03/07 09:55:51;;;;;;;14.23;9.00;;;2.20;83.00;;;;;;5070435;28;20947;-45
2022/03/07 09:58:18;;;;;;;11.67;9.10;;;2.30;83.40;;;;;;5069257;28;20515;-44
2022/03/07 10:00:45;;;;;;;15.37;9.47;;;2.40;82.40;;;;;;5069901;28;20905;-46
2022/03/07 10:03:14;;;;;;;13.30;10.43;;;2.50;83.40;;;;;;5070207;28;20970;-44
2022/03/07 10:05:44;;;;;;;14.30;10.80;;;2.60;84.50;;;;;;5070575;28;20512;-44
2022/03/07 10:08:22;;;;;;;16.90;10.53;;;2.60;83.60;;;;;;5070918;28;20528;-44
2022/03/07 10:10:51;;;;;;;15.50;10.00;;;2.70;82.40;;;;;;5073677;28;20497;-44
2022/03/07 10:13:19;;;;;;;12.90;9.97;;;2.80;83.30;;;;;;5074678;28;20445;-45
2022/03/07 10:15:56;;;;;;;12.37;10.57;;;3.00;83.60;;;;;;5073608;28;20484;-44
2022/03/07 10:18:24;;;;;;;15.87;10.67;;;3.10;84.40;;;;;;5074057;28;20457;-46
2022/03/07 10:20:51;;;;;;;12.40;9.90;;;3.10;80.70;;;;;;5073993;28;20516;-46
2022/03/07 10:23:20;;;;;;;16.97;12.13;;;3.20;81.90;;;;;;5074266;28;20476;-45
2022/03/07 10:25:47;;;;;;;16.03;9.73;;;3.30;81.00;;;;;;5074060;28;20479;-43
2022/03/07 10:28:14;;;;;;;14.30;10.50;;;3.50;82.80;;;;;;5074318;28;20496;-45
2022/03/07 10:30:42;;;;;;;15.50;10.80;;;3.60;80.80;;;;;;5072563;28;20502;-44
2022/03/07 10:33:10;;;;;;;13.87;11.50;;;3.60;81.60;;;;;;5073046;28;20458;-45
2022/03/07 10:35:40;;;;;;;12.70;10.93;;;3.70;83.30;;;;;;5073762;28;20865;-46
2022/03/07 10:38:11;;;;;;;18.80;13.00;;;3.80;82.60;;;;;;5073754;28;20496;-44
2022/03/07 10:40:41;;;;;;;14.90;11.23;;;3.80;82.20;;;;;;5073566;28;20492;-44
2022/03/07 10:43:08;;;;;;;11.63;10.40;;;4.00;83.20;;;;;;5073786;28;20595;-45
2022/03/07 10:45:46;;;;;;;14.90;11.40;;;4.00;78.40;;;;;;5074105;28;20442;-44
2022/03/07 10:48:13;;;;;;;12.43;11.13;;;4.00;79.80;;;;;;5073566;28;20456;-45
2022/03/07 10:50:42;;;;;;;16.90;12.43;;;4.10;79.40;;;;;;5073511;28;20512;-43
2022/03/07 10:53:09;;;;;;;15.13;11.80;;;4.10;82.70;;;;;;5072780;28;20521;-44
2022/03/07 10:55:36;;;;;;;19.23;13.03;;;4.00;82.60;;;;;;5072143;28;20538;-45
2022/03/07 10:58:10;;;;;;;16.07;11.97;;;4.00;81.90;;;;;;5072237;28;20530;-44
2022/03/07 11:00:49;;;;;;;19.60;12.27;;;4.10;83.10;;;;;;5072173;28;20543;-45
2022/03/07 11:03:17;;;;;;;13.80;11.43;;;4.00;82.40;;;;;;5072282;28;20479;-44
2022/03/07 11:05:45;;;;;;;124.93;20.53;;;4.00;81.60;;;;;;5072135;28;20443;-45
2022/03/07 11:08:14;;;;;;;18.40;10.90;;;4.10;82.30;;;;;;5072702;28;20466;-44
2022/03/07 11:10:45;;;;;;;17.70;11.80;;;3.80;78.40;;;;;;5067377;28;20539;-44
2022/03/07 11:13:14;;;;;;;16.23;12.50;;;3.60;79.60;;;;;;5070424;28;20436;-44
2022/03/07 11:15:42;;;;;;;14.97;12.00;;;3.80;83.80;;;;;;5071603;28;20864;-44
2022/03/07 11:18:11;;;;;;;14.80;12.30;;;3.70;81.50;;;;;;5070016;28;20448;-44
2022/03/07 11:20:41;;;;;;;18.87;15.40;;;3.80;80.90;;;;;;5056025;28;20491;-44
2022/03/07 11:23:08;;;;;;;15.13;12.70;;;3.80;81.90;;;;;;5051848;28;20496;-46
2022/03/07 11:25:37;;;;;;;15.43;11.77;;;3.70;81.40;;;;;;5051890;28;20474;-44
2022/03/07 11:28:04;;;;;;;17.00;13.73;;;3.60;83.60;;;;;;5051831;28;20526;-45
2022/03/07 11:30:36;;;;;;;18.70;13.00;;;3.60;82.70;;;;;;5052058;28;20499;-44
2022/03/07 11:33:11;;;;;;;14.33;11.20;;;3.50;83.80;;;;;;5053333;28;20536;-44
2022/03/07 11:35:42;;;;;;;16.00;11.43;;;3.60;81.30;;;;;;5052984;28;20478;-44
2022/03/07 11:38:17;;;;;;;15.60;12.53;;;3.70;82.80;;;;;;5060236;28;20961;-44
2022/03/07 11:41:00;;;;;;;16.73;11.73;;;3.70;83.90;;;;;;5071403;28;20541;-45
2022/03/07 11:43:29;;;;;;;14.10;12.60;;;3.60;82.20;;;;;;5071870;28;20551;-45
2022/03/07 11:45:58;;;;;;;14.30;11.90;;;3.60;84.20;;;;;;5072388;28;20473;-44
2022/03/07 11:48:26;;;;;;;14.27;11.90;;;3.70;85.60;;;;;;5072530;28;20449;-44
2022/03/07 11:50:53;;;;;;;13.80;12.37;;;3.70;82.50;;;;;;5071141;28;20508;-45
2022/03/07 11:53:20;;;;;;;14.80;11.83;;;3.90;85.30;;;;;;5071226;28;20887;-44
2022/03/07 11:55:50;;;;;;;13.83;11.07;;;3.70;80.90;;;;;;5070708;28;20469;-44
2022/03/07 11:58:28;;;;;;;14.63;12.10;;;3.60;83.30;;;;;;5071500;28;20476;-44
2022/03/07 12:01:08;;;;;;;17.57;12.43;;;3.80;82.60;;;;;;5070754;28;20501;-45
2022/03/07 12:03:35;;;;;;;16.27;10.93;;;4.00;81.50;;;;;;5071987;28;21047;-44
2022/03/07 12:06:04;;;;;;;13.90;12.20;;;4.10;80.50;;;;;;5072149;28;20452;-45
2022/03/07 12:08:42;;;;;;;13.80;12.23;;;3.60;80.00;;;;;;5072026;28;20846;-45
2022/03/07 12:11:10;;;;;;;17.10;13.93;;;3.70;81.90;;;;;;5071664;28;20504;-45
2022/03/07 12:13:47;;;;;;;16.30;13.00;;;3.80;80.50;;;;;;5070767;28;20440;-44
2022/03/07 12:16:24;;;;;;;14.20;11.87;;;3.70;80.90;;;;;;5068660;28;20446;-45
2022/03/07 12:18:53;;;;;;;16.73;12.90;;;3.80;82.10;;;;;;5071811;28;20474;-45
2022/03/07 12:21:25;;;;;;;15.83;11.53;;;3.80;82.80;;;;;;5071324;28;20493;-45
2022/03/07 12:23:52;;;;;;;15.37;12.03;;;4.00;80.80;;;;;;5072274;28;20439;-46
2022/03/07 12:26:19;;;;;;;16.47;11.80;;;4.10;80.10;;;;;;5071853;28;20481;-45
2022/03/07 12:28:48;;;;;;;15.33;12.03;;;4.00;79.00;;;;;;5071966;28;20449;-45
2022/03/07 12:31:17;;;;;;;11.63;10.10;;;3.90;81.60;;;;;;5071872;28;20457;-46
2022/03/07 12:33:44;;;;;;;19.20;12.13;;;4.10;82.00;;;;;;5070500;28;20472;-44
2022/03/07 12:36:14;;;;;;;15.43;12.17;;;4.10;78.90;;;;;;5071160;28;20479;-45
2022/03/07 12:38:48;;;;;;;13.90;11.40;;;4.30;82.40;;;;;;5071147;28;20500;-45